Airfield :
LOGIN :

Register | Disclaimer

   EN    FR    IT 

 










Legend :    VFR   Marginal VFR   IFR   Intensive IFR   Very Intensive IFR
Visi :
Ceiling :
>= 8 km
>= 3000ft
5 to 8 km
1000 to 3000 ft
1500m to 5 km
500 to 1000 ft
800 to 1500m
200 to 500 ft
< 800m
< 200 ft
Symbols :   Thunderstorms  Fog  Heavy snow  Heavy precipitations  Wind > 20 kt
SIGMETs :     Misc.  Thunderstorms  Icing  Turbulence  Mountain Waves  Volcanic Ashes






- Airport Elevation : 245 ft


ETHS - Fassberg

CURRENT METAR :
  • 011520Z 28013KT 9000 VCSH FEW015TCU BKN030 04/02 Q1008 BLACKBLU BLU+ TEMPO YLO

EXPIRED METARs :
  • 011420Z 28014KT 9000 FEW015CB BKN030 03/01 Q1008 RERA BLACKBLU BLU+
  • 011341Z 33011KT 8000 VCSH SCT015CB BKN040 02/01 Q1007 RERA BLACKBLU BLU TEMPO YLO
  • 011320Z 26016G33KT 3000 SHRA BKN015CB BKN040 03/03 Q1007 BLACKYLO BLU TEMPO GRN
  • 011244Z 26012KT 3700 SHRA BKN015CB BKN050 04/03 Q1008 BLACKGRN BLU TEMPO GRN
  • 011239Z 27012KT 4000 -SHRA SCT020TCU BKN050 04/03 Q1008 BLACKGRN BLU TEMPO GRN
  • 011220Z 27015KT 5000 -SHRA SCT020TCU BKN050 05/03 Q1008 BLACKWHT BLU TEMPO GRN

TAF TAF ETHS
Valid from the 01 at 15:00 until the 02 at 00:00 UTC


011415Z 0115/0124 27015G25KT 9999 NSW SCT020 SCT090
TEMPO 0116/0120 27020G33KT 2500 SHRAGS BKN010CB



MET'MAP, your aeronautical weather chart ! - Copyright ORBIFLY December 2007 - Disclaimer

ORBIFLY MET'MAP TEAM :

Programming & Development : Alexandra Zaïnal
Original concept : Baudouin d'Aumeries
Technical & hardware support : Manuel Goepfert
Assistance : Marc-Olivier Méhu




SOURCES & CREDITS :

   NOAA